Terminal Aerodrome Forecast
Issued by NWS

Home | Current Version | Previous Version | Graphics & Text | Print | Product List | Glossary On
Versions: 1 2 3 4 5 6 7 8 9 10 11 12 13 14 15 16 17 18 19 20 21 22 23 24 25 26 27
743
FTUS43 KABR 260720 AAA
TAFATY
TAF AMD
KATY 260720Z 2607/2706 28006KT P6SM BKN018
     FM261400 05010KT P6SM OVC008
     FM261800 07013KT P6SM OVC012
     FM270300 08017KT P6SM VCSH OVC008=

USA.gov is the U.S. government's official web portal to all federal, state and local government web resources and services.